Flight Track Log - Related Links

Times and Time Zones

All times are in EDT time to prevent confusion due to time zone crossing. See the EGF3681 flight status page for this flight to view local times or setup timezone preferences in your user account.

Time Position Orientation Groundspeed Altitude Reporting Facility
EDT Latitude Longitude Course Direction KTS km/h feet Rate Location/Type
Wed 22h54:41 41.9833 -87.8500 90° East 168 311 2.000  Level Chicago TRACON
Wed 22h56:00 41.9634 -87.5003 98° East  Level FlightAware Approximate
Wed 22h56:28 41.9858 -87.7064 89° East 222 410 5.100  Level Chicago Center
Wed 22h57:00 41.9501 -87.3682 98° East  Level FlightAware Approximate
Wed 22h57:30 41.9767 -87.6047 97° East 265 491 6.800  Level Chicago Center
Wed 22h58:00 41.9407 -87.2355 95° East  Level FlightAware Approximate
Wed 22h58:31 41.9700 -87.4992 95° East 281 520 8.600  Level Chicago Center
Wed 22h59:00 41.9333 -87.1027 90° East  Level FlightAware Approximate
Wed 22h59:32 41.9644 -87.3908 94° East 289 536 10.300  Level Chicago Center
Wed 23h00:33 41.9572 -87.2756 95° East 306 566 11.600 1.230 Climbing Chicago Center
Wed 23h01:34 41.9492 -87.1536 95° East 324 600 12.800 1.122 Climbing Chicago Center
Wed 23h02:36 41.9428 -87.0261 94° East 341 631 13.900 1.073 Climbing Chicago Center
Wed 23h03:37 41.9250 -86.8992 101° East 358 663 15.000 1.033 Climbing Chicago Center
Wed 23h04:38 41.8642 -86.7892 127° Southeast 367 679 16.000 1.082 Climbing Chicago Center
Wed 23h05:39 41.7947 -86.6658 127° Southeast 375 695 17.200 1.082 Climbing Chicago Center
Wed 23h06:40 41.7317 -86.5511 126° Southeast 381 705 18.200 984 Climbing Chicago Center
Wed 23h07:41 41.6694 -86.4361 126° Southeast 384 711 19.200 984 Climbing Chicago Center
Wed 23h08:42 41.6064 -86.3194 126° Southeast 388 719 20.200 1.024 Climbing Chicago Center
Wed 23h09:44 41.5419 -86.2019 126° Southeast 394 729 21.300 1.024 Climbing Chicago Center
Wed 23h10:45 41.4753 -86.0822 127° Southeast 401 742 22.300 836 Climbing Chicago Center
Wed 23h11:46 41.3956 -85.9381 126° Southeast 406 752 23.000 344 Climbing Chicago Center
Wed 23h12:47 41.3253 -85.8103 126° Southeast 428 793 23.000  Level Chicago Center
Wed 23h13:48 41.2503 -85.6769 127° Southeast 451 835 23.000  Level Chicago Center
Wed 23h14:49 41.1744 -85.5383 126° Southeast 466 863 23.000  Level Chicago Center
Wed 23h15:50 41.0958 -85.4000 127° Southeast 471 872 23.000  Level Chicago Center
Wed 23h16:51 41.0161 -85.2578 127° Southeast 480 888 23.000 -1.082 Level Chicago Center
Wed 23h17:52 40.9211 -85.1383 136° Southeast 472 874 20.800 -2.262 Descending Chicago Center
Wed 23h18:53 40.8156 -85.0489 147° Southeast 459 850 18.400 -2.361 Descending Chicago Center
Wed 23h19:54 40.6947 -84.9506 148° Southeast 437 810 16.000 -1.557 Descending Chicago Center
Wed 23h21:04 40.5936 -84.8681 148° Southeast 425 787 15.000 -779 Descending Indianapolis Center
Wed 23h22:05 40.4956 -84.7881 148° Southeast 420 777 14.300 -1.036 Descending Indianapolis Center
Wed 23h22:54 40.4006 -84.7128 149° Southeast 397 735 13.100 -1.327 Descending Indianapolis Center
Wed 23h23:49 40.3233 -84.6486 148° Southeast 388 719 12.000 -1.082 Descending Indianapolis Center
Wed 23h24:56 40.2181 -84.6097 164° South 320 592 10.900 -1.339 Descending Indianapolis Center
Wed 23h25:50 40.1428 -84.5850 166° South 297 550 9.300 -1.722 Descending Indianapolis Center
Wed 23h26:51 40.0617 -84.5561 165° South 297 550 7.600 -1.636 Descending Indianapolis Center
Wed 23h27:51 39.9869 -84.5286 164° South 285 528 6.000 -1.636 Descending Indianapolis Center
Wed 23h28:52 39.9119 -84.5014 164° South 277 513 4.300 -1.377 Descending Indianapolis Center
Wed 23h29:53 39.8436 -84.4725 162° South 264 489 3.200 -645 Descending Indianapolis Center
Wed 23h30:53 39.8106 -84.4064 123° Southeast 211 391 3.000 -198 Descending Indianapolis Center
Wed 23h31:54 39.8400 -84.3489 56° Northeast 188 348 2.800 -446 Descending Indianapolis Center
Wed 23h32:54 39.8636 -84.3067 54° Northeast 135 249 2.100 -694 Descending Indianapolis Center
Wed 23h33:55 39.8844 -84.2667 56° Northeast 125 232 1.400 -689 Descending Indianapolis Center

Login

Don't have an account? Register now (free) for customized features, flight alerts, and more!